sensor_id;sensor_type;location;lat;lon;timestamp;pressure;altitude;pressure_sealevel;temperature;humidity
21153;BME280;10734;44.792;20.482;2022-07-24T00:01:25;99679.38;;;27.83;47.15
21153;BME280;10734;44.792;20.482;2022-07-24T00:03:52;99702.06;;;27.69;48.30
21153;BME280;10734;44.792;20.482;2022-07-24T00:06:20;99709.22;;;27.60;48.52
21153;BME280;10734;44.792;20.482;2022-07-24T00:08:47;99716.38;;;27.61;48.52
21153;BME280;10734;44.792;20.482;2022-07-24T00:11:14;99721.91;;;27.61;49.03
21153;BME280;10734;44.792;20.482;2022-07-24T00:13:41;99720.81;;;27.62;49.18
21153;BME280;10734;44.792;20.482;2022-07-24T00:16:08;99718.06;;;27.62;48.99
21153;BME280;10734;44.792;20.482;2022-07-24T00:18:35;99710.31;;;27.64;48.60
21153;BME280;10734;44.792;20.482;2022-07-24T00:21:02;99710.88;;;27.66;48.47
21153;BME280;10734;44.792;20.482;2022-07-24T00:23:29;99705.91;;;27.68;48.49
21153;BME280;10734;44.792;20.482;2022-07-24T00:25:56;99711.44;;;27.68;48.89
21153;BME280;10734;44.792;20.482;2022-07-24T00:28:23;99709.22;;;27.70;48.95
21153;BME280;10734;44.792;20.482;2022-07-24T00:30:50;99715.28;;;27.67;49.43
21153;BME280;10734;44.792;20.482;2022-07-24T00:33:17;99715.84;;;27.64;49.26
21153;BME280;10734;44.792;20.482;2022-07-24T00:35:43;99718.88;;;27.62;49.71
21153;BME280;10734;44.792;20.482;2022-07-24T00:38:10;99719.69;;;27.58;49.34
21153;BME280;10734;44.792;20.482;2022-07-24T00:40:37;99714.16;;;27.53;49.82
21153;BME280;10734;44.792;20.482;2022-07-24T00:43:04;99714.16;;;27.53;50.06
21153;BME280;10734;44.792;20.482;2022-07-24T00:45:31;99721.91;;;27.51;50.02
21153;BME280;10734;44.792;20.482;2022-07-24T00:47:57;99714.69;;;27.50;50.23
21153;BME280;10734;44.792;20.482;2022-07-24T00:50:25;99717.72;;;27.48;50.77
21153;BME280;10734;44.792;20.482;2022-07-24T00:52:53;99709.72;;;27.47;50.97
21153;BME280;10734;44.792;20.482;2022-07-24T00:55:20;99714.41;;;27.46;50.49
21153;BME280;10734;44.792;20.482;2022-07-24T00:57:47;99714.97;;;27.43;51.41
21153;BME280;10734;44.792;20.482;2022-07-24T01:00:20;99717.13;;;27.41;49.60
21153;BME280;10734;44.792;20.482;2022-07-24T01:02:47;99722.97;;;27.44;49.40
21153;BME280;10734;44.792;20.482;2022-07-24T01:05:14;99717.44;;;27.44;48.47
21153;BME280;10734;44.792;20.482;2022-07-24T01:07:41;99713.34;;;27.52;47.62
21153;BME280;10734;44.792;20.482;2022-07-24T01:10:08;99719.69;;;27.53;47.16
21153;BME280;10734;44.792;20.482;2022-07-24T01:12:37;99722.44;;;27.58;46.71
21153;BME280;10734;44.792;20.482;2022-07-24T01:15:05;99719.41;;;27.59;46.89
21153;BME280;10734;44.792;20.482;2022-07-24T01:17:35;99713.88;;;27.59;47.00
21153;BME280;10734;44.792;20.482;2022-07-24T01:20:04;99711.41;;;27.58;47.10
21153;BME280;10734;44.792;20.482;2022-07-24T01:22:31;99720.22;;;27.55;46.75
21153;BME280;10734;44.792;20.482;2022-07-24T01:24:57;99715.81;;;27.54;47.13
21153;BME280;10734;44.792;20.482;2022-07-24T01:27:24;99719.69;;;27.53;46.96
21153;BME280;10734;44.792;20.482;2022-07-24T01:29:52;99721.91;;;27.51;46.83
21153;BME280;10734;44.792;20.482;2022-07-24T01:32:18;99724.63;;;27.46;47.14
21153;BME280;10734;44.792;20.482;2022-07-24T01:34:45;99718.81;;;27.42;47.36
21153;BME280;10734;44.792;20.482;2022-07-24T01:37:12;99716.88;;;27.37;47.40
21153;BME280;10734;44.792;20.482;2022-07-24T01:39:39;99715.75;;;27.33;47.78
21153;BME280;10734;44.792;20.482;2022-07-24T01:42:05;99718.44;;;27.28;47.77
21153;BME280;10734;44.792;20.482;2022-07-24T01:44:32;99717.34;;;27.24;47.83
21153;BME280;10734;44.792;20.482;2022-07-24T01:46:59;99717.31;;;27.19;47.88
21153;BME280;10734;44.792;20.482;2022-07-24T01:49:26;99717.28;;;27.14;48.18
21153;BME280;10734;44.792;20.482;2022-07-24T01:51:53;99722.53;;;27.10;48.39
21153;BME280;10734;44.792;20.482;2022-07-24T01:54:19;99718.34;;;27.07;48.38
21153;BME280;10734;44.792;20.482;2022-07-24T01:56:46;99717.81;;;27.05;48.53
21153;BME280;10734;44.792;20.482;2022-07-24T01:59:13;99721.09;;;27.02;48.88
21153;BME280;10734;44.792;20.482;2022-07-24T02:01:40;99711.69;;;26.98;48.65
21153;BME280;10734;44.792;20.482;2022-07-24T02:04:06;99713.88;;;26.96;48.96
21153;BME280;10734;44.792;20.482;2022-07-24T02:06:33;99708.91;;;26.93;48.76
21153;BME280;10734;44.792;20.482;2022-07-24T02:09:00;99705.00;;;26.89;49.12
21153;BME280;10734;44.792;20.482;2022-07-24T02:11:27;99706.06;;;26.83;49.64
21153;BME280;10734;44.792;20.482;2022-07-24T02:13:54;99703.28;;;26.78;49.80
21153;BME280;10734;44.792;20.482;2022-07-24T02:16:23;99712.38;;;26.73;49.88
21153;BME280;10734;44.792;20.482;2022-07-24T02:18:50;99705.97;;;26.67;50.02
21153;BME280;10734;44.792;20.482;2022-07-24T02:21:17;99709.22;;;26.64;50.28
21153;BME280;10734;44.792;20.482;2022-07-24T02:23:43;99705.91;;;26.62;50.31
21153;BME280;10734;44.792;20.482;2022-07-24T02:26:10;99714.16;;;26.57;50.42
21153;BME280;10734;44.792;20.482;2022-07-24T02:28:37;99699.78;;;26.55;50.71
21153;BME280;10734;44.792;20.482;2022-07-24T02:31:04;99713.00;;;26.53;50.94
21153;BME280;10734;44.792;20.482;2022-07-24T02:33:30;99714.91;;;26.47;51.25
21153;BME280;10734;44.792;20.482;2022-07-24T02:35:57;99725.13;;;26.47;50.92
21153;BME280;10734;44.792;20.482;2022-07-24T02:38:24;99760.97;;;26.42;51.32
21153;BME280;10734;44.792;20.482;2022-07-24T02:40:51;99834.25;;;26.32;51.80
21153;BME280;10734;44.792;20.482;2022-07-24T02:43:17;99803.88;;;26.27;52.19
21153;BME280;10734;44.792;20.482;2022-07-24T02:45:44;99790.53;;;26.19;52.96
21153;BME280;10734;44.792;20.482;2022-07-24T02:48:18;99825.13;;;26.05;53.83
21153;BME280;10734;44.792;20.482;2022-07-24T02:50:45;99809.16;;;26.07;53.81
21153;BME280;10734;44.792;20.482;2022-07-24T02:53:12;99783.47;;;26.01;54.40
21153;BME280;10734;44.792;20.482;2022-07-24T02:55:38;99805.06;;;25.87;55.42
21153;BME280;10734;44.792;20.482;2022-07-24T02:58:05;99830.34;;;25.79;55.98
21153;BME280;10734;44.792;20.482;2022-07-24T03:00:32;99847.06;;;25.72;56.35
21153;BME280;10734;44.792;20.482;2022-07-24T03:02:59;99829.53;;;25.61;57.50
21153;BME280;10734;44.792;20.482;2022-07-24T03:05:26;99814.03;;;25.55;57.76
21153;BME280;10734;44.792;20.482;2022-07-24T03:07:52;99802.91;;;25.45;58.61
21153;BME280;10734;44.792;20.482;2022-07-24T03:10:19;99814.28;;;25.32;59.34
21153;BME280;10734;44.792;20.482;2022-07-24T03:12:46;99800.09;;;25.23;60.01
21153;BME280;10734;44.792;20.482;2022-07-24T03:15:13;99787.59;;;25.15;60.61
21153;BME280;10734;44.792;20.482;2022-07-24T03:17:48;99795.19;;;25.08;60.93
21153;BME280;10734;44.792;20.482;2022-07-24T03:20:17;99800.13;;;25.06;60.90
21153;BME280;10734;44.792;20.482;2022-07-24T03:22:45;99793.19;;;25.03;61.49
21153;BME280;10734;44.792;20.482;2022-07-24T03:25:12;99795.63;;;25.00;61.59
21153;BME280;10734;44.792;20.482;2022-07-24T03:27:42;99822.78;;;24.96;62.02
21153;BME280;10734;44.792;20.482;2022-07-24T03:30:13;99830.16;;;24.90;62.61
21153;BME280;10734;44.792;20.482;2022-07-24T03:32:43;99825.22;;;24.92;62.32
21153;BME280;10734;44.792;20.482;2022-07-24T03:35:11;99820.78;;;24.91;62.33
21153;BME280;10734;44.792;20.482;2022-07-24T03:37:42;99822.97;;;24.89;62.53
21153;BME280;10734;44.792;20.482;2022-07-24T03:40:10;99826.56;;;24.90;62.74
21153;BME280;10734;44.792;20.482;2022-07-24T03:42:37;99834.06;;;24.94;62.50
21153;BME280;10734;44.792;20.482;2022-07-24T03:45:05;99828.66;;;25.00;62.44
21153;BME280;10734;44.792;20.482;2022-07-24T03:47:32;99830.66;;;25.04;61.93
21153;BME280;10734;44.792;20.482;2022-07-24T03:49:59;99839.81;;;25.10;62.27
21153;BME280;10734;44.792;20.482;2022-07-24T03:52:25;99831.66;;;25.15;62.02
21153;BME280;10734;44.792;20.482;2022-07-24T03:54:53;99832.97;;;25.29;61.70
21153;BME280;10734;44.792;20.482;2022-07-24T03:57:21;99844.13;;;25.40;61.45
21153;BME280;10734;44.792;20.482;2022-07-24T03:59:48;99841.28;;;25.52;61.22
21153;BME280;10734;44.792;20.482;2022-07-24T04:02:15;99832.81;;;25.58;60.82
21153;BME280;10734;44.792;20.482;2022-07-24T04:04:41;99845.06;;;25.68;60.22
21153;BME280;10734;44.792;20.482;2022-07-24T04:07:09;99841.03;;;25.75;60.38
21153;BME280;10734;44.792;20.482;2022-07-24T04:09:35;99844.19;;;25.84;59.75
21153;BME280;10734;44.792;20.482;2022-07-24T04:12:02;99843.72;;;25.92;59.73
21153;BME280;10734;44.792;20.482;2022-07-24T04:14:29;99851.00;;;25.98;59.59
21153;BME280;10734;44.792;20.482;2022-07-24T04:16:56;99859.31;;;26.04;59.00
21153;BME280;10734;44.792;20.482;2022-07-24T04:19:23;99858.28;;;26.10;58.81
21153;BME280;10734;44.792;20.482;2022-07-24T04:21:50;99860.09;;;26.21;58.88
21153;BME280;10734;44.792;20.482;2022-07-24T04:24:17;99865.59;;;26.21;58.71
21153;BME280;10734;44.792;20.482;2022-07-24T04:26:43;99864.22;;;26.24;58.67
21153;BME280;10734;44.792;20.482;2022-07-24T04:29:10;99868.72;;;26.30;58.57
21153;BME280;10734;44.792;20.482;2022-07-24T04:31:37;99876.22;;;26.34;58.64
21153;BME280;10734;44.792;20.482;2022-07-24T04:34:04;99879.53;;;26.36;58.43
21153;BME280;10734;44.792;20.482;2022-07-24T04:36:31;99883.97;;;26.37;58.38
21153;BME280;10734;44.792;20.482;2022-07-24T04:38:58;99882.97;;;26.49;58.05
21153;BME280;10734;44.792;20.482;2022-07-24T04:41:33;99886.91;;;26.53;58.31
21153;BME280;10734;44.792;20.482;2022-07-24T04:44:01;99886.41;;;26.61;58.26
21153;BME280;10734;44.792;20.482;2022-07-24T04:46:28;99884.47;;;26.84;57.62
21153;BME280;10734;44.792;20.482;2022-07-24T04:48:55;99885.50;;;26.78;57.13
21153;BME280;10734;44.792;20.482;2022-07-24T04:51:23;99894.81;;;26.66;57.91
21153;BME280;10734;44.792;20.482;2022-07-24T04:53:50;99891.56;;;26.75;58.09
21153;BME280;10734;44.792;20.482;2022-07-24T04:56:20;99900.81;;;26.63;57.80
21153;BME280;10734;44.792;20.482;2022-07-24T04:58:49;99896.84;;;26.54;57.92
21153;BME280;10734;44.792;20.482;2022-07-24T05:01:16;99888.94;;;26.35;58.03
21153;BME280;10734;44.792;20.482;2022-07-24T05:03:44;99894.44;;;26.35;58.56
21153;BME280;10734;44.792;20.482;2022-07-24T05:06:11;99897.88;;;26.48;58.81
21153;BME280;10734;44.792;20.482;2022-07-24T05:08:38;99910.50;;;26.66;58.41
21153;BME280;10734;44.792;20.482;2022-07-24T05:11:05;99920.84;;;26.53;58.69
21153;BME280;10734;44.792;20.482;2022-07-24T05:13:33;99926.63;;;26.52;58.81
21153;BME280;10734;44.792;20.482;2022-07-24T05:16:00;99927.16;;;26.71;58.69
21153;BME280;10734;44.792;20.482;2022-07-24T05:18:27;99929.69;;;26.78;58.34
21153;BME280;10734;44.792;20.482;2022-07-24T05:20:54;99929.16;;;26.81;58.00
21153;BME280;10734;44.792;20.482;2022-07-24T05:23:21;99922.69;;;26.97;58.23
21153;BME280;10734;44.792;20.482;2022-07-24T05:25:48;99925.13;;;27.26;57.35
21153;BME280;10734;44.792;20.482;2022-07-24T05:28:16;99935.66;;;27.29;57.27
21153;BME280;10734;44.792;20.482;2022-07-24T05:30:43;99926.63;;;27.06;57.71
21153;BME280;10734;44.792;20.482;2022-07-24T05:33:10;99937.78;;;27.17;57.86
21153;BME280;10734;44.792;20.482;2022-07-24T05:35:38;99935.16;;;27.05;57.93
21153;BME280;10734;44.792;20.482;2022-07-24T05:38:05;99932.25;;;27.17;58.03
21153;BME280;10734;44.792;20.482;2022-07-24T05:40:32;99939.44;;;27.18;58.27
21153;BME280;10734;44.792;20.482;2022-07-24T05:42:59;99946.25;;;27.37;58.22
21153;BME280;10734;44.792;20.482;2022-07-24T05:45:26;99949.13;;;27.53;57.82
21153;BME280;10734;44.792;20.482;2022-07-24T05:47:54;99951.41;;;27.29;58.38
21153;BME280;10734;44.792;20.482;2022-07-24T05:50:21;99943.81;;;27.14;58.88
21153;BME280;10734;44.792;20.482;2022-07-24T05:52:48;99953.59;;;27.26;58.85
21153;BME280;10734;44.792;20.482;2022-07-24T05:55:15;99952.16;;;27.19;58.93
21153;BME280;10734;44.792;20.482;2022-07-24T05:57:44;99949.34;;;27.14;59.03
21153;BME280;10734;44.792;20.482;2022-07-24T06:00:13;99956.81;;;27.46;58.54
21153;BME280;10734;44.792;20.482;2022-07-24T06:02:43;99953.69;;;27.74;57.74
21153;BME280;10734;44.792;20.482;2022-07-24T06:05:09;99959.72;;;27.66;57.47
21153;BME280;10734;44.792;20.482;2022-07-24T06:07:36;99958.47;;;27.47;58.37
21153;BME280;10734;44.792;20.482;2022-07-24T06:10:04;99959.69;;;27.61;58.14
21153;BME280;10734;44.792;20.482;2022-07-24T06:12:33;99972.59;;;27.93;57.11
21153;BME280;10734;44.792;20.482;2022-07-24T06:14:59;99972.53;;;27.83;57.30
21153;BME280;10734;44.792;20.482;2022-07-24T06:17:26;99974.25;;;27.94;57.77
21153;BME280;10734;44.792;20.482;2022-07-24T06:19:54;99967.84;;;27.83;57.76
21153;BME280;10734;44.792;20.482;2022-07-24T06:22:20;99970.53;;;28.15;57.21
21153;BME280;10734;44.792;20.482;2022-07-24T06:24:47;99973.34;;;28.26;57.36
21153;BME280;10734;44.792;20.482;2022-07-24T06:27:15;99969.56;;;28.42;56.48
21153;BME280;10734;44.792;20.482;2022-07-24T06:29:42;99981.97;;;28.35;57.02
21153;BME280;10734;44.792;20.482;2022-07-24T06:32:08;99979.94;;;28.14;57.09
21153;BME280;10734;44.792;20.482;2022-07-24T06:34:35;99984.28;;;28.00;58.09
21153;BME280;10734;44.792;20.482;2022-07-24T06:37:02;99983.59;;;27.83;58.47
21153;BME280;10734;44.792;20.482;2022-07-24T06:39:29;99994.38;;;27.79;58.54
21153;BME280;10734;44.792;20.482;2022-07-24T06:41:56;99978.97;;;27.93;58.11
21153;BME280;10734;44.792;20.482;2022-07-24T06:44:22;99977.78;;;28.27;58.19
21153;BME280;10734;44.792;20.482;2022-07-24T06:46:49;99986.19;;;28.58;57.56
21153;BME280;10734;44.792;20.482;2022-07-24T06:49:16;99974.63;;;28.76;56.75
21153;BME280;10734;44.792;20.482;2022-07-24T06:51:43;99984.38;;;28.94;56.12
21153;BME280;10734;44.792;20.482;2022-07-24T06:54:11;99991.66;;;29.21;54.54
21153;BME280;10734;44.792;20.482;2022-07-24T06:56:37;99984.72;;;29.44;53.07
21153;BME280;10734;44.792;20.482;2022-07-24T06:59:04;99984.16;;;29.37;54.09
21153;BME280;10734;44.792;20.482;2022-07-24T07:01:32;99979.72;;;29.46;53.47
21153;BME280;10734;44.792;20.482;2022-07-24T07:03:59;99981.38;;;29.63;52.74
21153;BME280;10734;44.792;20.482;2022-07-24T07:06:26;99985.25;;;29.82;52.42
21153;BME280;10734;44.792;20.482;2022-07-24T07:08:54;99984.16;;;29.83;52.55
21153;BME280;10734;44.792;20.482;2022-07-24T07:11:20;99990.25;;;29.80;51.79
21153;BME280;10734;44.792;20.482;2022-07-24T07:13:47;99994.69;;;29.40;52.86
21153;BME280;10734;44.792;20.482;2022-07-24T07:16:14;99996.34;;;29.62;52.62
21153;BME280;10734;44.792;20.482;2022-07-24T07:18:40;99987.47;;;29.90;51.92
21153;BME280;10734;44.792;20.482;2022-07-24T07:21:09;99992.94;;;30.11;50.78
21153;BME280;10734;44.792;20.482;2022-07-24T07:23:35;99994.09;;;30.05;50.93
21153;BME280;10734;44.792;20.482;2022-07-24T07:26:02;99991.88;;;29.97;51.66
21153;BME280;10734;44.792;20.482;2022-07-24T07:28:29;99990.16;;;30.06;50.45
21153;BME280;10734;44.792;20.482;2022-07-24T07:30:55;99992.31;;;30.45;49.29
21153;BME280;10734;44.792;20.482;2022-07-24T07:33:22;99993.94;;;30.46;48.52
21153;BME280;10734;44.792;20.482;2022-07-24T07:35:53;99990.53;;;30.64;48.92
21153;BME280;10734;44.792;20.482;2022-07-24T07:38:19;99991.34;;;30.65;48.96
21153;BME280;10734;44.792;20.482;2022-07-24T07:40:52;99996.16;;;30.49;48.39
21153;BME280;10734;44.792;20.482;2022-07-24T07:43:18;100004.94;;;30.67;48.13
21153;BME280;10734;44.792;20.482;2022-07-24T07:45:45;100003.13;;;31.02;47.94
21153;BME280;10734;44.792;20.482;2022-07-24T07:48:12;99996.88;;;31.15;47.24
21153;BME280;10734;44.792;20.482;2022-07-24T07:50:39;100012.03;;;30.93;46.38
21153;BME280;10734;44.792;20.482;2022-07-24T07:53:05;100005.72;;;30.77;45.92
21153;BME280;10734;44.792;20.482;2022-07-24T07:55:32;100003.03;;;31.12;45.71
21153;BME280;10734;44.792;20.482;2022-07-24T07:58:00;100003.59;;;31.09;47.36
21153;BME280;10734;44.792;20.482;2022-07-24T08:00:32;100010.16;;;31.28;47.34
21153;BME280;10734;44.792;20.482;2022-07-24T08:02:59;100010.91;;;31.39;48.01
21153;BME280;10734;44.792;20.482;2022-07-24T08:05:26;100012.81;;;31.44;48.09
21153;BME280;10734;44.792;20.482;2022-07-24T08:07:52;100007.47;;;31.13;49.28
21153;BME280;10734;44.792;20.482;2022-07-24T08:10:21;100015.50;;;30.70;50.15
21153;BME280;10734;44.792;20.482;2022-07-24T08:12:48;100024.88;;;30.79;50.17
21153;BME280;10734;44.792;20.482;2022-07-24T08:15:14;100022.72;;;30.71;49.95
21153;BME280;10734;44.792;20.482;2022-07-24T08:17:43;100015.91;;;30.97;49.19
21153;BME280;10734;44.792;20.482;2022-07-24T08:20:10;100013.28;;;30.72;49.98
21153;BME280;10734;44.792;20.482;2022-07-24T08:22:37;100010.84;;;31.10;48.53
21153;BME280;10734;44.792;20.482;2022-07-24T08:25:04;100019.25;;;30.99;48.48
21153;BME280;10734;44.792;20.482;2022-07-24T08:27:35;100012.94;;;31.28;47.92
21153;BME280;10734;44.792;20.482;2022-07-24T08:30:05;100011.81;;;31.64;47.13
21153;BME280;10734;44.792;20.482;2022-07-24T08:32:33;100013.44;;;31.99;46.40
21153;BME280;10734;44.792;20.482;2022-07-24T08:35:01;100010.97;;;32.22;45.48
21153;BME280;10734;44.792;20.482;2022-07-24T08:37:28;100007.13;;;31.59;45.85
21153;BME280;10734;44.792;20.482;2022-07-24T08:39:55;100011.28;;;31.91;45.39
21153;BME280;10734;44.792;20.482;2022-07-24T08:42:22;100015.56;;;32.07;45.03
21153;BME280;10734;44.792;20.482;2022-07-24T08:44:49;100016.59;;;32.17;44.48
21153;BME280;10734;44.792;20.482;2022-07-24T08:47:16;100009.28;;;31.97;44.34
21153;BME280;10734;44.792;20.482;2022-07-24T08:49:53;100012.56;;;31.75;45.06
21153;BME280;10734;44.792;20.482;2022-07-24T08:52:21;100015.00;;;32.11;44.02
21153;BME280;10734;44.792;20.482;2022-07-24T08:54:49;100024.22;;;32.30;43.75
21153;BME280;10734;44.792;20.482;2022-07-24T08:57:16;100020.41;;;32.69;42.51
21153;BME280;10734;44.792;20.482;2022-07-24T08:59:43;100018.69;;;32.92;42.87
21153;BME280;10734;44.792;20.482;2022-07-24T09:02:11;100029.56;;;32.94;42.47
21153;BME280;10734;44.792;20.482;2022-07-24T09:04:41;100020.25;;;32.36;43.75
21153;BME280;10734;44.792;20.482;2022-07-24T09:07:11;100020.75;;;32.87;43.62
21153;BME280;10734;44.792;20.482;2022-07-24T09:09:39;100031.72;;;32.97;43.57
21153;BME280;10734;44.792;20.482;2022-07-24T09:12:17;100021.66;;;33.01;43.45
21153;BME280;10734;44.792;20.482;2022-07-24T09:14:46;100012.84;;;33.32;44.97
21153;BME280;10734;44.792;20.482;2022-07-24T09:17:18;100019.25;;;33.32;44.82
21153;BME280;10734;44.792;20.482;2022-07-24T09:22:36;100028.72;;;33.31;43.16
21153;BME280;10734;44.792;20.482;2022-07-24T09:25:19;100036.78;;;33.14;43.75
21153;BME280;10734;44.792;20.482;2022-07-24T09:27:53;100035.97;;;33.13;44.35
21153;BME280;10734;44.792;20.482;2022-07-24T09:30:24;100037.63;;;33.14;44.56
21153;BME280;10734;44.792;20.482;2022-07-24T09:32:57;100046.06;;;33.09;44.99
21153;BME280;10734;44.792;20.482;2022-07-24T09:35:33;100046.56;;;32.73;45.46
21153;BME280;10734;44.792;20.482;2022-07-24T09:38:03;100043.22;;;33.14;43.77
21153;BME280;10734;44.792;20.482;2022-07-24T09:40:36;100035.97;;;33.13;42.07
21153;BME280;10734;44.792;20.482;2022-07-24T09:43:18;100040.56;;;32.85;41.98
21153;BME280;10734;44.792;20.482;2022-07-24T09:45:58;100048.84;;;33.09;41.51
21153;BME280;10734;44.792;20.482;2022-07-24T09:48:32;100040.81;;;33.79;41.20
21153;BME280;10734;44.792;20.482;2022-07-24T09:51:18;100035.66;;;34.00;41.02
21153;BME280;10734;44.792;20.482;2022-07-24T09:53:51;100045.72;;;33.68;42.01
21153;BME280;10734;44.792;20.482;2022-07-24T09:56:19;100057.19;;;33.99;40.71
21153;BME280;10734;44.792;20.482;2022-07-24T10:01:15;100043.63;;;33.60;41.95
21153;BME280;10734;44.792;20.482;2022-07-24T10:03:45;100050.38;;;34.19;41.74
21153;BME280;10734;44.792;20.482;2022-07-24T10:06:15;100048.28;;;33.83;43.45
21153;BME280;10734;44.792;20.482;2022-07-24T10:08:46;100046.41;;;33.79;42.86
21153;BME280;10734;44.792;20.482;2022-07-24T10:11:14;100055.53;;;34.12;42.79
21153;BME280;10734;44.792;20.482;2022-07-24T10:13:43;100047.69;;;33.48;44.47
21153;BME280;10734;44.792;20.482;2022-07-24T10:18:57;100052.41;;;34.00;43.58
21153;BME280;10734;44.792;20.482;2022-07-24T10:21:26;100046.69;;;33.77;42.68
21153;BME280;10734;44.792;20.482;2022-07-24T10:26:41;100054.03;;;33.73;43.10
21153;BME280;10734;44.792;20.482;2022-07-24T10:29:17;100050.53;;;33.81;42.69
21153;BME280;10734;44.792;20.482;2022-07-24T10:31:47;100049.56;;;34.05;42.05
21153;BME280;10734;44.792;20.482;2022-07-24T10:42:16;100045.44;;;34.72;40.69
21153;BME280;10734;44.792;20.482;2022-07-24T10:44:44;100049.88;;;34.31;41.26
21153;BME280;10734;44.792;20.482;2022-07-24T10:47:12;100051.25;;;34.76;40.90
21153;BME280;10734;44.792;20.482;2022-07-24T10:52:28;100046.44;;;34.90;40.23
21153;BME280;10734;44.792;20.482;2022-07-24T10:55:33;100042.72;;;34.67;40.51
21153;BME280;10734;44.792;20.482;2022-07-24T10:58:12;100049.97;;;34.96;40.05
21153;BME280;10734;44.792;20.482;2022-07-24T11:00:49;100041.66;;;34.90;40.43
21153;BME280;10734;44.792;20.482;2022-07-24T11:03:25;100038.72;;;35.46;39.47
21153;BME280;10734;44.792;20.482;2022-07-24T11:06:12;100045.81;;;35.30;39.23
21153;BME280;10734;44.792;20.482;2022-07-24T11:08:40;100029.22;;;34.97;39.25
21153;BME280;10734;44.792;20.482;2022-07-24T11:11:14;100041.16;;;34.88;39.42
21153;BME280;10734;44.792;20.482;2022-07-24T11:13:43;100031.81;;;34.29;40.43
21153;BME280;10734;44.792;20.482;2022-07-24T11:21:30;100042.59;;;33.18;42.12
21153;BME280;10734;44.792;20.482;2022-07-24T11:26:54;100033.97;;;33.71;40.35
21153;BME280;10734;44.792;20.482;2022-07-24T11:29:39;100038.78;;;34.12;40.05
21153;BME280;10734;44.792;20.482;2022-07-24T11:32:06;100039.84;;;34.72;38.40
21153;BME280;10734;44.792;20.482;2022-07-24T11:34:46;100037.38;;;34.56;39.19
21153;BME280;10734;44.792;20.482;2022-07-24T11:37:13;100028.25;;;34.65;38.59
21153;BME280;10734;44.792;20.482;2022-07-24T11:39:42;100029.06;;;34.79;37.73
21153;BME280;10734;44.792;20.482;2022-07-24T11:42:15;100027.66;;;34.40;38.00
21153;BME280;10734;44.792;20.482;2022-07-24T11:44:47;100023.94;;;34.95;37.25
21153;BME280;10734;44.792;20.482;2022-07-24T11:47:20;100031.75;;;34.84;36.94
21153;BME280;10734;44.792;20.482;2022-07-24T11:49:53;100023.47;;;34.79;37.45
21153;BME280;10734;44.792;20.482;2022-07-24T11:52:26;100028.25;;;34.65;37.38
21153;BME280;10734;44.792;20.482;2022-07-24T11:54:58;100029.13;;;35.24;36.57
21153;BME280;10734;44.792;20.482;2022-07-24T11:57:29;100036.34;;;34.80;36.55
21153;BME280;10734;44.792;20.482;2022-07-24T12:00:21;100017.09;;;35.38;35.94
21153;BME280;10734;44.792;20.482;2022-07-24T12:02:58;100020.00;;;35.55;35.36
21153;BME280;10734;44.792;20.482;2022-07-24T12:07:54;100017.31;;;36.35;33.50
21153;BME280;10734;44.792;20.482;2022-07-24T12:10:26;100009.56;;;35.92;34.34
21153;BME280;10734;44.792;20.482;2022-07-24T12:12:54;100017.88;;;36.15;33.84
21153;BME280;10734;44.792;20.482;2022-07-24T12:15:23;100015.28;;;35.64;34.69
21153;BME280;10734;44.792;20.482;2022-07-24T12:20:26;100007.44;;;34.71;35.63
21153;BME280;10734;44.792;20.482;2022-07-24T12:22:54;100001.94;;;35.16;35.17
21153;BME280;10734;44.792;20.482;2022-07-24T12:25:21;100001.22;;;35.56;34.61
21153;BME280;10734;44.792;20.482;2022-07-24T12:27:48;100000.41;;;35.55;34.52
21153;BME280;10734;44.792;20.482;2022-07-24T12:30:26;99997.47;;;35.60;33.43
21153;BME280;10734;44.792;20.482;2022-07-24T12:36:11;99997.47;;;35.60;33.60
21153;BME280;10734;44.792;20.482;2022-07-24T12:38:51;99993.78;;;35.51;34.63
21153;BME280;10734;44.792;20.482;2022-07-24T12:41:20;100000.31;;;35.38;33.67
21153;BME280;10734;44.792;20.482;2022-07-24T12:44:04;100003.44;;;35.00;32.36
21153;BME280;10734;44.792;20.482;2022-07-24T12:49:04;100001.53;;;34.03;32.90
21153;BME280;10734;44.792;20.482;2022-07-24T12:56:46;99999.88;;;33.74;34.04
21153;BME280;10734;44.792;20.482;2022-07-24T13:01:53;100018.06;;;33.20;40.17
21153;BME280;10734;44.792;20.482;2022-07-24T13:04:23;100017.06;;;32.48;45.82
21153;BME280;10734;44.792;20.482;2022-07-24T13:06:52;100011.22;;;31.96;45.51
21153;BME280;10734;44.792;20.482;2022-07-24T13:09:20;100005.28;;;32.32;48.19
21153;BME280;10734;44.792;20.482;2022-07-24T13:11:49;100013.09;;;32.30;48.18
21153;BME280;10734;44.792;20.482;2022-07-24T13:14:20;100002.19;;;31.51;45.92
21153;BME280;10734;44.792;20.482;2022-07-24T13:16:49;100004.59;;;31.28;46.09
21153;BME280;10734;44.792;20.482;2022-07-24T13:19:18;100000.69;;;31.29;46.80
21153;BME280;10734;44.792;20.482;2022-07-24T13:21:45;99999.19;;;31.08;50.28
21153;BME280;10734;44.792;20.482;2022-07-24T13:24:14;99997.59;;;30.91;54.74
21153;BME280;10734;44.792;20.482;2022-07-24T13:26:42;99985.81;;;31.10;51.26
21153;BME280;10734;44.792;20.482;2022-07-24T13:29:09;99979.50;;;31.33;52.19
21153;BME280;10734;44.792;20.482;2022-07-24T13:31:38;99980.22;;;31.79;50.89
21153;BME280;10734;44.792;20.482;2022-07-24T13:34:05;99971.00;;;32.07;50.75
21153;BME280;10734;44.792;20.482;2022-07-24T13:36:34;99967.94;;;32.33;49.83
21153;BME280;10734;44.792;20.482;2022-07-24T13:39:06;99957.53;;;32.82;47.66
21153;BME280;10734;44.792;20.482;2022-07-24T13:41:34;99960.03;;;32.84;46.71